PWSweather.com
Personal Weather Stations
Station Observations
SELSTON
Bracken House, Selston NottinghamGB NG16 6AN

Bracken HouseSelston NottinghamGB NG16 6AN

Lat: 53.070642, Lon: -1.2933

Elevation: 426

Station Type: Davis Vantage Pro 2

http://www.selstonweather.info

Latest ConditionsUpdated 10:57:22 AM GMT Wednesday, Dec 12, 2018
Currently Today's Max Today's Min Today's Average
Temperature 40.5°F4.7°C 40.6°F4.8°C 37.7°F3.2°C 38.9°F3.8°C
Dew Point 38.4°F3.6°C 38.8°F3.8°C 36.1°F2.3°C 37.2°F2.9°C
Winds 5.0 mph E8.0 kmh E 11.0 mph -17.7 kmh - - 6.0 mph 9.7 kmh
Wind Gusts 12.0 mph19.3 kmh 14.0 mph22.5 kmh - -
Humidity 92% 95% 92% 94%
Pressure 30.17 in1021.7 mb 30.18 in1022.0 mb 30.13 in1020.3 mb -
Hour Temp Dew Point Humidity Winds Wind Gusts Pressure Precip Precip Rate Daily Precip Total
10:57 AM 40.5°F4.7°C 38.4°F3.6°C 92% 5.0 mph E8.0 kmh E 12.0 mph19.3 kmh 30.17 in1021.7 mb 0.00 in0.0 mm 0.00 in0.0 mm 0.00 in0.0 mm
10:52 AM 40.5°F4.7°C 38.4°F3.6°C 92% 5.0 mph SE8.0 kmh SE 12.0 mph19.3 kmh 30.17 in1021.7 mb 0.00 in0.0 mm 0.00 in0.0 mm 0.00 in0.0 mm
10:47 AM 40.5°F4.7°C 38.4°F3.6°C 92% 7.0 mph SE11.3 kmh SE 12.0 mph19.3 kmh 30.17 in1021.7 mb 0.00 in0.0 mm 0.00 in0.0 mm 0.00 in0.0 mm
10:42 AM 40.5°F4.7°C 38.4°F3.6°C 92% 4.0 mph SE6.4 kmh SE 11.0 mph17.7 kmh 30.18 in1022.0 mb 0.00 in0.0 mm 0.00 in0.0 mm 0.00 in0.0 mm
10:37 AM 40.5°F4.7°C 38.4°F3.6°C 92% 8.0 mph SE12.9 kmh SE 11.0 mph17.7 kmh 30.18 in1022.0 mb 0.00 in0.0 mm 0.00 in0.0 mm 0.00 in0.0 mm
10:32 AM 40.6°F4.8°C 38.5°F3.6°C 92% 4.0 mph ESE6.4 kmh ESE 11.0 mph17.7 kmh 30.18 in1022.0 mb 0.00 in0.0 mm 0.00 in0.0 mm 0.00 in0.0 mm
10:27 AM 40.6°F4.8°C 38.5°F3.6°C 92% 5.0 mph SE8.0 kmh SE 11.0 mph17.7 kmh 30.18 in1022.0 mb 0.00 in0.0 mm 0.00 in0.0 mm 0.00 in0.0 mm
10:22 AM 40.6°F4.8°C 38.5°F3.6°C 92% 8.0 mph SE12.9 kmh SE 13.0 mph20.9 kmh 30.18 in1022.0 mb 0.00 in0.0 mm 0.00 in0.0 mm 0.00 in0.0 mm
10:17 AM 40.6°F4.8°C 38.5°F3.6°C 92% 8.0 mph SSE12.9 kmh SSE 13.0 mph20.9 kmh 30.17 in1021.7 mb 0.00 in0.0 mm 0.00 in0.0 mm 0.00 in0.0 mm
10:12 AM 40.5°F4.7°C 38.4°F3.6°C 92% 8.0 mph SSE12.9 kmh SSE 13.0 mph20.9 kmh 30.17 in1021.7 mb 0.00 in0.0 mm 0.00 in0.0 mm 0.00 in0.0 mm
10:07 AM 40.5°F4.7°C 38.4°F3.6°C 92% 5.0 mph SE8.0 kmh SE 13.0 mph20.9 kmh 30.17 in1021.7 mb 0.00 in0.0 mm 0.00 in0.0 mm 0.00 in0.0 mm
10:02 AM 40.5°F4.7°C 38.4°F3.6°C 92% 7.0 mph SE11.3 kmh SE 10.0 mph16.1 kmh 30.17 in1021.7 mb 0.00 in0.0 mm 0.00 in0.0 mm 0.00 in0.0 mm
09:57 AM 40.5°F4.7°C 38.4°F3.6°C 92% 9.0 mph SE14.5 kmh SE 10.0 mph16.1 kmh 30.17 in1021.7 mb 0.00 in0.0 mm 0.00 in0.0 mm 0.00 in0.0 mm
09:52 AM 40.4°F4.7°C 38.3°F3.5°C 92% 6.0 mph SE9.7 kmh SE 11.0 mph17.7 kmh 30.17 in1021.7 mb 0.00 in0.0 mm 0.00 in0.0 mm 0.00 in0.0 mm
09:47 AM 40.4°F4.7°C 38.3°F3.5°C 92% 5.0 mph S8.0 kmh S 11.0 mph17.7 kmh 30.17 in1021.7 mb 0.00 in0.0 mm 0.00 in0.0 mm 0.00 in0.0 mm
09:42 AM 40.3°F4.6°C 38.2°F3.4°C 92% 6.0 mph SE9.7 kmh SE 12.0 mph19.3 kmh 30.17 in1021.7 mb 0.00 in0.0 mm 0.00 in0.0 mm 0.00 in0.0 mm
09:37 AM 40.2°F4.6°C 38.1°F3.4°C 92% 6.0 mph SE9.7 kmh SE 12.0 mph19.3 kmh 30.16 in1021.3 mb 0.00 in0.0 mm 0.00 in0.0 mm 0.00 in0.0 mm
09:32 AM 40.2°F4.6°C 38.1°F3.4°C 92% 7.0 mph SE11.3 kmh SE 13.0 mph20.9 kmh 30.16 in1021.3 mb 0.00 in0.0 mm 0.00 in0.0 mm 0.00 in0.0 mm
09:27 AM 40.1°F4.5°C 38.0°F3.3°C 92% 11.0 mph SSE17.7 kmh SSE 13.0 mph20.9 kmh 30.16 in1021.3 mb 0.00 in0.0 mm 0.00 in0.0 mm 0.00 in0.0 mm
09:22 AM 40.1°F4.5°C 38.0°F3.3°C 92% 6.0 mph SSE9.7 kmh SSE 13.0 mph20.9 kmh 30.16 in1021.3 mb 0.00 in0.0 mm 0.00 in0.0 mm 0.00 in0.0 mm
09:17 AM 40.0°F4.4°C 38.1°F3.4°C 93% 5.0 mph SE8.0 kmh SE 13.0 mph20.9 kmh 30.16 in1021.3 mb 0.00 in0.0 mm 0.00 in0.0 mm 0.00 in0.0 mm
09:12 AM 40.0°F4.4°C 38.1°F3.4°C 93% 7.0 mph SE11.3 kmh SE 12.0 mph19.3 kmh 30.16 in1021.3 mb 0.00 in0.0 mm 0.00 in0.0 mm 0.00 in0.0 mm
09:07 AM 39.9°F4.4°C 38.0°F3.3°C 93% 5.0 mph SE8.0 kmh SE 12.0 mph19.3 kmh 30.17 in1021.7 mb 0.00 in0.0 mm 0.00 in0.0 mm 0.00 in0.0 mm
09:02 AM 39.8°F4.3°C 37.9°F3.3°C 93% 6.0 mph SE9.7 kmh SE 12.0 mph19.3 kmh 30.16 in1021.3 mb 0.00 in0.0 mm 0.00 in0.0 mm 0.00 in0.0 mm
08:57 AM 39.7°F4.3°C 37.8°F3.2°C 93% 11.0 mph SE17.7 kmh SE 14.0 mph22.5 kmh 30.16 in1021.3 mb 0.00 in0.0 mm 0.00 in0.0 mm 0.00 in0.0 mm
08:52 AM 39.6°F4.2°C 37.7°F3.2°C 93% 9.0 mph SSE14.5 kmh SSE 14.0 mph22.5 kmh 30.16 in1021.3 mb 0.00 in0.0 mm 0.00 in0.0 mm 0.00 in0.0 mm
08:47 AM 39.6°F4.2°C 37.7°F3.2°C 93% 11.0 mph SSE17.7 kmh SSE 14.0 mph22.5 kmh 30.16 in1021.3 mb 0.00 in0.0 mm 0.00 in0.0 mm 0.00 in0.0 mm
08:42 AM 39.5°F4.2°C 37.6°F3.1°C 93% 6.0 mph ESE9.7 kmh ESE 14.0 mph22.5 kmh 30.16 in1021.3 mb 0.00 in0.0 mm 0.00 in0.0 mm 0.00 in0.0 mm
08:37 AM 39.5°F4.2°C 37.6°F3.1°C 93% 4.0 mph SE6.4 kmh SE 13.0 mph20.9 kmh 30.16 in1021.3 mb 0.00 in0.0 mm 0.00 in0.0 mm 0.00 in0.0 mm
08:32 AM 39.4°F4.1°C 37.5°F3.1°C 93% 6.0 mph ESE9.7 kmh ESE 12.0 mph19.3 kmh 30.16 in1021.3 mb 0.00 in0.0 mm 0.00 in0.0 mm 0.00 in0.0 mm
08:27 AM 39.4°F4.1°C 37.5°F3.1°C 93% 2.0 mph ESE3.2 kmh ESE 12.0 mph19.3 kmh 30.16 in1021.3 mb 0.00 in0.0 mm 0.00 in0.0 mm 0.00 in0.0 mm
08:22 AM 39.4°F4.1°C 37.8°F3.2°C 94% 4.0 mph SE6.4 kmh SE 12.0 mph19.3 kmh 30.16 in1021.3 mb 0.00 in0.0 mm 0.00 in0.0 mm 0.00 in0.0 mm
08:17 AM 39.3°F4.1°C 37.7°F3.2°C 94% 5.0 mph SE8.0 kmh SE 11.0 mph17.7 kmh 30.16 in1021.3 mb 0.00 in0.0 mm 0.00 in0.0 mm 0.00 in0.0 mm
08:12 AM 39.2°F4.0°C 37.6°F3.1°C 94% 6.0 mph SE9.7 kmh SE 13.0 mph20.9 kmh 30.17 in1021.7 mb 0.00 in0.0 mm 0.00 in0.0 mm 0.00 in0.0 mm
08:07 AM 39.0°F3.9°C 37.4°F3.0°C 94% 4.0 mph SE6.4 kmh SE 13.0 mph20.9 kmh 30.16 in1021.3 mb 0.00 in0.0 mm 0.00 in0.0 mm 0.00 in0.0 mm
08:02 AM 38.9°F3.8°C 37.3°F2.9°C 94% 5.0 mph SE8.0 kmh SE 13.0 mph20.9 kmh 30.16 in1021.3 mb 0.00 in0.0 mm 0.00 in0.0 mm 0.00 in0.0 mm
07:57 AM 38.8°F3.8°C 37.2°F2.9°C 94% 8.0 mph E12.9 kmh E 13.0 mph20.9 kmh 30.16 in1021.3 mb 0.00 in0.0 mm 0.00 in0.0 mm 0.00 in0.0 mm
07:52 AM 38.7°F3.7°C 37.1°F2.8°C 94% 5.0 mph ESE8.0 kmh ESE 11.0 mph17.7 kmh 30.16 in1021.3 mb 0.00 in0.0 mm 0.00 in0.0 mm 0.00 in0.0 mm
07:47 AM 38.7°F3.7°C 37.1°F2.8°C 94% 6.0 mph SE9.7 kmh SE 11.0 mph17.7 kmh 30.16 in1021.3 mb 0.00 in0.0 mm 0.00 in0.0 mm 0.00 in0.0 mm
07:42 AM 38.7°F3.7°C 37.1°F2.8°C 94% 4.0 mph ESE6.4 kmh ESE 11.0 mph17.7 kmh 30.16 in1021.3 mb 0.00 in0.0 mm 0.00 in0.0 mm 0.00 in0.0 mm
07:37 AM 38.7°F3.7°C 37.1°F2.8°C 94% 6.0 mph SE9.7 kmh SE 11.0 mph17.7 kmh 30.16 in1021.3 mb 0.00 in0.0 mm 0.00 in0.0 mm 0.00 in0.0 mm
07:32 AM 38.7°F3.7°C 37.1°F2.8°C 94% 6.0 mph E9.7 kmh E 11.0 mph17.7 kmh 30.15 in1021.0 mb 0.00 in0.0 mm 0.00 in0.0 mm 0.00 in0.0 mm
07:27 AM 38.7°F3.7°C 37.1°F2.8°C 94% 5.0 mph ESE8.0 kmh ESE 11.0 mph17.7 kmh 30.15 in1021.0 mb 0.00 in0.0 mm 0.00 in0.0 mm 0.00 in0.0 mm
07:22 AM 38.6°F3.7°C 37.0°F2.8°C 94% 6.0 mph E9.7 kmh E 9.0 mph14.5 kmh 30.15 in1021.0 mb 0.00 in0.0 mm 0.00 in0.0 mm 0.00 in0.0 mm
07:17 AM 38.6°F3.7°C 37.0°F2.8°C 94% 7.0 mph ESE11.3 kmh ESE 9.0 mph14.5 kmh 30.15 in1021.0 mb 0.00 in0.0 mm 0.00 in0.0 mm 0.00 in0.0 mm
07:12 AM 38.6°F3.7°C 37.0°F2.8°C 94% 7.0 mph ESE11.3 kmh ESE 9.0 mph14.5 kmh 30.15 in1021.0 mb 0.00 in0.0 mm 0.00 in0.0 mm 0.00 in0.0 mm
07:07 AM 38.5°F3.6°C 36.9°F2.7°C 94% 7.0 mph ESE11.3 kmh ESE 11.0 mph17.7 kmh 30.15 in1021.0 mb 0.00 in0.0 mm 0.00 in0.0 mm 0.00 in0.0 mm
07:02 AM 38.4°F3.6°C 36.8°F2.7°C 94% 7.0 mph ESE11.3 kmh ESE 11.0 mph17.7 kmh 30.15 in1021.0 mb 0.00 in0.0 mm 0.00 in0.0 mm 0.00 in0.0 mm
06:57 AM 38.5°F3.6°C 36.9°F2.7°C 94% 6.0 mph ESE9.7 kmh ESE 11.0 mph17.7 kmh 30.15 in1021.0 mb 0.00 in0.0 mm 0.00 in0.0 mm 0.00 in0.0 mm
06:52 AM 38.4°F3.6°C 36.8°F2.7°C 94% 4.0 mph ESE6.4 kmh ESE 11.0 mph17.7 kmh 30.15 in1021.0 mb 0.00 in0.0 mm 0.00 in0.0 mm 0.00 in0.0 mm
06:47 AM 38.5°F3.6°C 36.9°F2.7°C 94% 5.0 mph ESE8.0 kmh ESE 9.0 mph14.5 kmh 30.14 in1020.7 mb 0.00 in0.0 mm 0.00 in0.0 mm 0.00 in0.0 mm
06:42 AM 38.5°F3.6°C 36.9°F2.7°C 94% 5.0 mph ESE8.0 kmh ESE 9.0 mph14.5 kmh 30.14 in1020.7 mb 0.00 in0.0 mm 0.00 in0.0 mm 0.00 in0.0 mm
06:37 AM 38.5°F3.6°C 36.9°F2.7°C 94% 7.0 mph ESE11.3 kmh ESE 9.0 mph14.5 kmh 30.15 in1021.0 mb 0.00 in0.0 mm 0.00 in0.0 mm 0.00 in0.0 mm
06:32 AM 38.3°F3.5°C 36.7°F2.6°C 94% 8.0 mph ESE12.9 kmh ESE 9.0 mph14.5 kmh 30.15 in1021.0 mb 0.00 in0.0 mm 0.00 in0.0 mm 0.00 in0.0 mm
06:27 AM 38.3°F3.5°C 36.7°F2.6°C 94% 2.0 mph ESE3.2 kmh ESE 9.0 mph14.5 kmh 30.15 in1021.0 mb 0.00 in0.0 mm 0.00 in0.0 mm 0.00 in0.0 mm
06:22 AM 38.2°F3.4°C 36.6°F2.6°C 94% 5.0 mph ESE8.0 kmh ESE 9.0 mph14.5 kmh 30.14 in1020.7 mb 0.00 in0.0 mm 0.00 in0.0 mm 0.00 in0.0 mm
06:17 AM 38.0°F3.3°C 36.4°F2.4°C 94% 6.0 mph E9.7 kmh E 8.0 mph12.9 kmh 30.14 in1020.7 mb 0.00 in0.0 mm 0.00 in0.0 mm 0.00 in0.0 mm
06:12 AM 37.9°F3.3°C 36.3°F2.4°C 94% 6.0 mph ESE9.7 kmh ESE 8.0 mph12.9 kmh 30.14 in1020.7 mb 0.00 in0.0 mm 0.00 in0.0 mm 0.00 in0.0 mm
06:07 AM 37.8°F3.2°C 36.2°F2.3°C 94% 4.0 mph ESE6.4 kmh ESE 9.0 mph14.5 kmh 30.14 in1020.7 mb 0.00 in0.0 mm 0.00 in0.0 mm 0.00 in0.0 mm
06:02 AM 37.9°F3.3°C 36.3°F2.4°C 94% 4.0 mph ESE6.4 kmh ESE 9.0 mph14.5 kmh 30.14 in1020.7 mb 0.00 in0.0 mm 0.00 in0.0 mm 0.00 in0.0 mm
05:57 AM 37.9°F3.3°C 36.3°F2.4°C 94% 5.0 mph ESE8.0 kmh ESE 9.0 mph14.5 kmh 30.14 in1020.7 mb 0.00 in0.0 mm 0.00 in0.0 mm 0.00 in0.0 mm
05:52 AM 37.9°F3.3°C 36.3°F2.4°C 94% 6.0 mph ESE9.7 kmh ESE 9.0 mph14.5 kmh 30.14 in1020.7 mb 0.00 in0.0 mm 0.00 in0.0 mm 0.00 in0.0 mm
05:47 AM 37.9°F3.3°C 36.3°F2.4°C 94% 6.0 mph ESE9.7 kmh ESE 11.0 mph17.7 kmh 30.14 in1020.7 mb 0.00 in0.0 mm 0.00 in0.0 mm 0.00 in0.0 mm
05:42 AM 37.9°F3.3°C 36.3°F2.4°C 94% 5.0 mph ESE8.0 kmh ESE 11.0 mph17.7 kmh 30.14 in1020.7 mb 0.00 in0.0 mm 0.00 in0.0 mm 0.00 in0.0 mm
05:37 AM 37.9°F3.3°C 36.3°F2.4°C 94% 5.0 mph ESE8.0 kmh ESE 11.0 mph17.7 kmh 30.14 in1020.7 mb 0.00 in0.0 mm 0.00 in0.0 mm 0.00 in0.0 mm
05:32 AM 37.9°F3.3°C 36.3°F2.4°C 94% 7.0 mph ESE11.3 kmh ESE 11.0 mph17.7 kmh 30.14 in1020.7 mb 0.00 in0.0 mm 0.00 in0.0 mm 0.00 in0.0 mm
05:27 AM 37.8°F3.2°C 36.2°F2.3°C 94% 4.0 mph SE6.4 kmh SE 9.0 mph14.5 kmh 30.14 in1020.7 mb 0.00 in0.0 mm 0.00 in0.0 mm 0.00 in0.0 mm
05:22 AM 37.9°F3.3°C 36.3°F2.4°C 94% 5.0 mph ESE8.0 kmh ESE 9.0 mph14.5 kmh 30.14 in1020.7 mb 0.00 in0.0 mm 0.00 in0.0 mm 0.00 in0.0 mm
05:17 AM 37.9°F3.3°C 36.3°F2.4°C 94% 8.0 mph ESE12.9 kmh ESE 9.0 mph14.5 kmh 30.14 in1020.7 mb 0.00 in0.0 mm 0.00 in0.0 mm 0.00 in0.0 mm
05:12 AM 37.8°F3.2°C 36.2°F2.3°C 94% 7.0 mph ESE11.3 kmh ESE 12.0 mph19.3 kmh 30.13 in1020.3 mb 0.00 in0.0 mm 0.00 in0.0 mm 0.00 in0.0 mm
05:07 AM 37.8°F3.2°C 36.2°F2.3°C 94% 6.0 mph ESE9.7 kmh ESE 12.0 mph19.3 kmh 30.13 in1020.3 mb 0.00 in0.0 mm 0.00 in0.0 mm 0.00 in0.0 mm
05:02 AM 37.9°F3.3°C 36.3°F2.4°C 94% 7.0 mph ESE11.3 kmh ESE 12.0 mph19.3 kmh 30.14 in1020.7 mb 0.00 in0.0 mm 0.00 in0.0 mm 0.00 in0.0 mm
04:57 AM 38.0°F3.3°C 36.4°F2.4°C 94% 6.0 mph ESE9.7 kmh ESE 12.0 mph19.3 kmh 30.14 in1020.7 mb 0.00 in0.0 mm 0.00 in0.0 mm 0.00 in0.0 mm
04:52 AM 37.8°F3.2°C 36.2°F2.3°C 94% 5.0 mph ESE8.0 kmh ESE 12.0 mph19.3 kmh 30.13 in1020.3 mb 0.00 in0.0 mm 0.00 in0.0 mm 0.00 in0.0 mm
04:47 AM 37.8°F3.2°C 36.2°F2.3°C 94% 6.0 mph ESE9.7 kmh ESE 12.0 mph19.3 kmh 30.14 in1020.7 mb 0.00 in0.0 mm 0.00 in0.0 mm 0.00 in0.0 mm
04:42 AM 37.9°F3.3°C 36.3°F2.4°C 94% 7.0 mph ESE11.3 kmh ESE 12.0 mph19.3 kmh 30.14 in1020.7 mb 0.00 in0.0 mm 0.00 in0.0 mm 0.00 in0.0 mm
04:37 AM 38.0°F3.3°C 36.4°F2.4°C 94% 6.0 mph E9.7 kmh E 12.0 mph19.3 kmh 30.14 in1020.7 mb 0.00 in0.0 mm 0.00 in0.0 mm 0.00 in0.0 mm
04:32 AM 38.0°F3.3°C 36.4°F2.4°C 94% 6.0 mph ESE9.7 kmh ESE 11.0 mph17.7 kmh 30.14 in1020.7 mb 0.00 in0.0 mm 0.00 in0.0 mm 0.00 in0.0 mm
04:27 AM 38.0°F3.3°C 36.4°F2.4°C 94% 7.0 mph ESE11.3 kmh ESE 11.0 mph17.7 kmh 30.14 in1020.7 mb 0.00 in0.0 mm 0.00 in0.0 mm 0.00 in0.0 mm
04:22 AM 38.0°F3.3°C 36.4°F2.4°C 94% 8.0 mph ESE12.9 kmh ESE 11.0 mph17.7 kmh 30.14 in1020.7 mb 0.00 in0.0 mm 0.00 in0.0 mm 0.00 in0.0 mm
04:17 AM 38.0°F3.3°C 36.4°F2.4°C 94% 5.0 mph ESE8.0 kmh ESE 11.0 mph17.7 kmh 30.14 in1020.7 mb 0.00 in0.0 mm 0.00 in0.0 mm 0.00 in0.0 mm
04:12 AM 38.0°F3.3°C 36.4°F2.4°C 94% 7.0 mph SE11.3 kmh SE 11.0 mph17.7 kmh 30.14 in1020.7 mb 0.00 in0.0 mm 0.00 in0.0 mm 0.00 in0.0 mm
04:07 AM 38.0°F3.3°C 36.4°F2.4°C 94% 6.0 mph ESE9.7 kmh ESE 11.0 mph17.7 kmh 30.14 in1020.7 mb 0.00 in0.0 mm 0.00 in0.0 mm 0.00 in0.0 mm
04:02 AM 38.0°F3.3°C 36.4°F2.4°C 94% 6.0 mph ESE9.7 kmh ESE 11.0 mph17.7 kmh 30.15 in1021.0 mb 0.00 in0.0 mm 0.00 in0.0 mm 0.00 in0.0 mm
03:57 AM 37.9°F3.3°C 36.3°F2.4°C 94% 4.0 mph ESE6.4 kmh ESE 10.0 mph16.1 kmh 30.15 in1021.0 mb 0.00 in0.0 mm 0.00 in0.0 mm 0.00 in0.0 mm
03:52 AM 37.9°F3.3°C 36.3°F2.4°C 94% 5.0 mph SE8.0 kmh SE 10.0 mph16.1 kmh 30.15 in1021.0 mb 0.00 in0.0 mm 0.00 in0.0 mm 0.00 in0.0 mm
03:47 AM 37.8°F3.2°C 36.2°F2.3°C 94% 5.0 mph SE8.0 kmh SE 9.0 mph14.5 kmh 30.15 in1021.0 mb 0.00 in0.0 mm 0.00 in0.0 mm 0.00 in0.0 mm
03:42 AM 37.8°F3.2°C 36.2°F2.3°C 94% 5.0 mph ESE8.0 kmh ESE 9.0 mph14.5 kmh 30.16 in1021.3 mb 0.00 in0.0 mm 0.00 in0.0 mm 0.00 in0.0 mm
03:37 AM 37.8°F3.2°C 36.2°F2.3°C 94% 7.0 mph ESE11.3 kmh ESE 11.0 mph17.7 kmh 30.16 in1021.3 mb 0.00 in0.0 mm 0.00 in0.0 mm 0.00 in0.0 mm
03:32 AM 37.7°F3.2°C 36.1°F2.3°C 94% 8.0 mph E12.9 kmh E 11.0 mph17.7 kmh 30.16 in1021.3 mb 0.00 in0.0 mm 0.00 in0.0 mm 0.00 in0.0 mm
03:27 AM 37.8°F3.2°C 36.2°F2.3°C 94% 5.0 mph SE8.0 kmh SE 14.0 mph22.5 kmh 30.16 in1021.3 mb 0.00 in0.0 mm 0.00 in0.0 mm 0.00 in0.0 mm
03:22 AM 37.8°F3.2°C 36.2°F2.3°C 94% 8.0 mph ESE12.9 kmh ESE 14.0 mph22.5 kmh 30.16 in1021.3 mb 0.00 in0.0 mm 0.00 in0.0 mm 0.00 in0.0 mm
03:17 AM 37.8°F3.2°C 36.2°F2.3°C 94% 6.0 mph ESE9.7 kmh ESE 14.0 mph22.5 kmh 30.16 in1021.3 mb 0.00 in0.0 mm 0.00 in0.0 mm 0.00 in0.0 mm
03:12 AM 37.8°F3.2°C 36.2°F2.3°C 94% 9.0 mph E14.5 kmh E 14.0 mph22.5 kmh 30.16 in1021.3 mb 0.00 in0.0 mm 0.00 in0.0 mm 0.00 in0.0 mm
03:07 AM 37.9°F3.3°C 36.3°F2.4°C 94% 9.0 mph SE14.5 kmh SE 13.0 mph20.9 kmh 30.16 in1021.3 mb 0.00 in0.0 mm 0.00 in0.0 mm 0.00 in0.0 mm
03:02 AM 38.0°F3.3°C 36.4°F2.4°C 94% 6.0 mph SE9.7 kmh SE 13.0 mph20.9 kmh 30.16 in1021.3 mb 0.00 in0.0 mm 0.00 in0.0 mm 0.00 in0.0 mm
02:57 AM 38.0°F3.3°C 36.4°F2.4°C 94% 4.0 mph ESE6.4 kmh ESE 13.0 mph20.9 kmh 30.16 in1021.3 mb 0.00 in0.0 mm 0.00 in0.0 mm 0.00 in0.0 mm
02:52 AM 37.9°F3.3°C 36.3°F2.4°C 94% 6.0 mph SSE9.7 kmh SSE 13.0 mph20.9 kmh 30.16 in1021.3 mb 0.00 in0.0 mm 0.00 in0.0 mm 0.00 in0.0 mm
02:47 AM 37.8°F3.2°C 36.2°F2.3°C 94% 6.0 mph E9.7 kmh E 11.0 mph17.7 kmh 30.16 in1021.3 mb 0.00 in0.0 mm 0.00 in0.0 mm 0.00 in0.0 mm
02:42 AM 37.9°F3.3°C 36.3°F2.4°C 94% 8.0 mph ESE12.9 kmh ESE 11.0 mph17.7 kmh 30.16 in1021.3 mb 0.00 in0.0 mm 0.00 in0.0 mm 0.00 in0.0 mm
02:37 AM 38.0°F3.3°C 36.4°F2.4°C 94% 8.0 mph ESE12.9 kmh ESE 11.0 mph17.7 kmh 30.16 in1021.3 mb 0.00 in0.0 mm 0.00 in0.0 mm 0.00 in0.0 mm
02:32 AM 38.1°F3.4°C 36.5°F2.5°C 94% 6.0 mph SE9.7 kmh SE 9.0 mph14.5 kmh 30.16 in1021.3 mb 0.00 in0.0 mm 0.00 in0.0 mm 0.00 in0.0 mm
02:27 AM 38.3°F3.5°C 36.7°F2.6°C 94% 6.0 mph E9.7 kmh E 9.0 mph14.5 kmh 30.16 in1021.3 mb 0.00 in0.0 mm 0.00 in0.0 mm 0.00 in0.0 mm
02:22 AM 38.5°F3.6°C 36.9°F2.7°C 94% 4.0 mph ESE6.4 kmh ESE 9.0 mph14.5 kmh 30.16 in1021.3 mb 0.00 in0.0 mm 0.00 in0.0 mm 0.00 in0.0 mm
02:17 AM 38.7°F3.7°C 37.1°F2.8°C 94% 5.0 mph ESE8.0 kmh ESE 9.0 mph14.5 kmh 30.17 in1021.7 mb 0.00 in0.0 mm 0.00 in0.0 mm 0.00 in0.0 mm
02:12 AM 38.9°F3.8°C 37.3°F2.9°C 94% 6.0 mph ESE9.7 kmh ESE 9.0 mph14.5 kmh 30.17 in1021.7 mb 0.00 in0.0 mm 0.00 in0.0 mm 0.00 in0.0 mm
02:07 AM 39.0°F3.9°C 37.4°F3.0°C 94% 6.0 mph ESE9.7 kmh ESE 12.0 mph19.3 kmh 30.17 in1021.7 mb 0.00 in0.0 mm 0.00 in0.0 mm 0.00 in0.0 mm
02:02 AM 39.2°F4.0°C 37.6°F3.1°C 94% 6.0 mph ESE9.7 kmh ESE 12.0 mph19.3 kmh 30.16 in1021.3 mb 0.00 in0.0 mm 0.00 in0.0 mm 0.00 in0.0 mm
01:57 AM 39.4°F4.1°C 37.8°F3.2°C 94% 8.0 mph E12.9 kmh E 12.0 mph19.3 kmh 30.16 in1021.3 mb 0.00 in0.0 mm 0.00 in0.0 mm 0.00 in0.0 mm
01:52 AM 39.5°F4.2°C 37.9°F3.3°C 94% 7.0 mph ESE11.3 kmh ESE 12.0 mph19.3 kmh 30.16 in1021.3 mb 0.00 in0.0 mm 0.00 in0.0 mm 0.00 in0.0 mm
01:47 AM 39.5°F4.2°C 37.9°F3.3°C 94% 9.0 mph ESE14.5 kmh ESE 11.0 mph17.7 kmh 30.16 in1021.3 mb 0.00 in0.0 mm 0.00 in0.0 mm 0.00 in0.0 mm
01:42 AM 39.3°F4.1°C 37.7°F3.2°C 94% 7.0 mph ESE11.3 kmh ESE 8.0 mph12.9 kmh 30.16 in1021.3 mb 0.00 in0.0 mm 0.00 in0.0 mm 0.00 in0.0 mm
01:37 AM 39.3°F4.1°C 37.7°F3.2°C 94% 7.0 mph ESE11.3 kmh ESE 8.0 mph12.9 kmh 30.17 in1021.7 mb 0.00 in0.0 mm 0.00 in0.0 mm 0.00 in0.0 mm
01:32 AM 39.3°F4.1°C 37.7°F3.2°C 94% 6.0 mph E9.7 kmh E 8.0 mph12.9 kmh 30.16 in1021.3 mb 0.00 in0.0 mm 0.00 in0.0 mm 0.00 in0.0 mm
01:27 AM 39.3°F4.1°C 37.7°F3.2°C 94% 6.0 mph ESE9.7 kmh ESE 8.0 mph12.9 kmh 30.17 in1021.7 mb 0.00 in0.0 mm 0.00 in0.0 mm 0.00 in0.0 mm
01:22 AM 39.2°F4.0°C 37.6°F3.1°C 94% 2.0 mph ESE3.2 kmh ESE 8.0 mph12.9 kmh 30.16 in1021.3 mb 0.00 in0.0 mm 0.00 in0.0 mm 0.00 in0.0 mm
01:17 AM 39.3°F4.1°C 37.7°F3.2°C 94% 5.0 mph ESE8.0 kmh ESE 8.0 mph12.9 kmh 30.16 in1021.3 mb 0.00 in0.0 mm 0.00 in0.0 mm 0.00 in0.0 mm
01:12 AM 39.4°F4.1°C 37.8°F3.2°C 94% 4.0 mph ESE6.4 kmh ESE 8.0 mph12.9 kmh 30.16 in1021.3 mb 0.00 in0.0 mm 0.00 in0.0 mm 0.00 in0.0 mm
01:07 AM 39.6°F4.2°C 38.0°F3.3°C 94% 5.0 mph ESE8.0 kmh ESE 8.0 mph12.9 kmh 30.16 in1021.3 mb 0.00 in0.0 mm 0.00 in0.0 mm 0.00 in0.0 mm
01:02 AM 39.7°F4.3°C 38.1°F3.4°C 94% 4.0 mph SE6.4 kmh SE 8.0 mph12.9 kmh 30.16 in1021.3 mb 0.00 in0.0 mm 0.00 in0.0 mm 0.00 in0.0 mm
12:57 AM 39.8°F4.3°C 38.2°F3.4°C 94% 6.0 mph ESE9.7 kmh ESE 7.0 mph11.3 kmh 30.16 in1021.3 mb 0.00 in0.0 mm 0.00 in0.0 mm 0.00 in0.0 mm
12:52 AM 39.8°F4.3°C 38.2°F3.4°C 94% 6.0 mph ESE9.7 kmh ESE 8.0 mph12.9 kmh 30.16 in1021.3 mb 0.00 in0.0 mm 0.00 in0.0 mm 0.00 in0.0 mm
12:47 AM 39.8°F4.3°C 38.2°F3.4°C 94% 2.0 mph SE3.2 kmh SE 8.0 mph12.9 kmh 30.16 in1021.3 mb 0.00 in0.0 mm 0.00 in0.0 mm 0.00 in0.0 mm
12:42 AM 39.8°F4.3°C 38.2°F3.4°C 94% 4.0 mph SE6.4 kmh SE 9.0 mph14.5 kmh 30.16 in1021.3 mb 0.00 in0.0 mm 0.00 in0.0 mm 0.00 in0.0 mm
12:37 AM 39.8°F4.3°C 38.2°F3.4°C 94% 5.0 mph SE8.0 kmh SE 9.0 mph14.5 kmh 30.16 in1021.3 mb 0.00 in0.0 mm 0.00 in0.0 mm 0.00 in0.0 mm
12:32 AM 39.9°F4.4°C 38.6°F3.7°C 95% 2.0 mph SE3.2 kmh SE 9.0 mph14.5 kmh 30.16 in1021.3 mb 0.00 in0.0 mm 0.00 in0.0 mm 0.00 in0.0 mm
12:27 AM 40.0°F4.4°C 38.7°F3.7°C 95% 5.0 mph SE8.0 kmh SE 9.0 mph14.5 kmh 30.16 in1021.3 mb 0.00 in0.0 mm 0.00 in0.0 mm 0.00 in0.0 mm
12:22 AM 40.0°F4.4°C 38.7°F3.7°C 95% 9.0 mph SE14.5 kmh SE 10.0 mph16.1 kmh 30.16 in1021.3 mb 0.00 in0.0 mm 0.00 in0.0 mm 0.00 in0.0 mm
12:17 AM 40.1°F4.5°C 38.8°F3.8°C 95% 5.0 mph ESE8.0 kmh ESE 10.0 mph16.1 kmh 30.16 in1021.3 mb 0.00 in0.0 mm 0.00 in0.0 mm 0.00 in0.0 mm
12:12 AM 40.1°F4.5°C 38.8°F3.8°C 95% 8.0 mph SSE12.9 kmh SSE 12.0 mph19.3 kmh 30.16 in1021.3 mb 0.00 in0.0 mm 0.00 in0.0 mm 0.00 in0.0 mm
12:07 AM 40.0°F4.4°C 38.7°F3.7°C 95% 8.0 mph SE12.9 kmh SE 12.0 mph19.3 kmh 30.16 in1021.3 mb 0.00 in0.0 mm 0.00 in0.0 mm 0.00 in0.0 mm
12:02 AM 39.8°F4.3°C 38.5°F3.6°C 95% 7.0 mph SSE11.3 kmh SSE 12.0 mph19.3 kmh 30.16 in1021.3 mb 0.00 in0.0 mm 0.00 in0.0 mm 0.00 in0.0 mm